Manila Express — VRCX7 — position and weather

sailwx.info

Track history (hours):
 
Tides and Currents Weather Stations Pressure Air Temp Water Temp Dewpoint Dewpoint Depression Visibility Wind Speed Wind Dir Waves Ship Positions

Manila Express

Last reported at 2015-Apr-27 23:33 UTC. Time now 2015-Apr-28 00:30 UTC.
Position N 39°51' E 002°03'.

Length 260 m; draft 10.1 m.

Type: Ship (hazmat cat A). MMSI: 477830800.

Date/timePositionNaut miles runAvg speedWind from/ knotsBaromVisibWave heightAir tempDewpointWater temp
2015-Apr-27 23:33N 39°51' E 002°03'1413.5
2015-Apr-27 22:33N 39°42' E 001°49'1413.5
2015-Apr-27 21:33N 39°33' E 001°36'1413.5
2015-Apr-27 20:33N 39°24' E 001°23'2014.4
2015-Apr-27 19:11N 39°08' E 001°09'913.8
2015-Apr-27 18:32N 39°00' E 001°03'6513.1
2015-Apr-27 13:33N 38°04' E 000°21'1916.3
2015-Apr-27 12:22N 37°47' E 000°09'1619.6
2015-Apr-27 11:33N 37°34' W 000°02'1515.3
2015-Apr-27 10:33N 37°21' W 000°12'1414.0
2015-Apr-27 09:33N 37°09' W 000°22'1413.9
2015-Apr-27 08:33N 37°02' W 000°37'1414.0
2015-Apr-27 07:33N 36°56' W 000°52'1413.8
2015-Apr-27 06:32N 36°49' W 001°08'1613.5
2015-Apr-27 05:22N 36°41' W 001°25'1313.5
2015-Apr-27 04:23N 36°35' W 001°40'1113.1
2015-Apr-27 03:33N 36°30' W 001°52'1413.2
2015-Apr-27 02:32N 36°23' W 002°06'1313.6
2015-Apr-27 01:33N 36°21' W 002°23'1414.0
2015-Apr-27 00:32N 36°19' W 002°40'1414.2
2015-Apr-26 23:33N 36°17' W 002°57'10814.5
2015-Apr-26 16:08N 36°02' W 005°09'1017.6
2015-Apr-26 15:33N 35°59' W 005°21'15915.4
2015-Apr-26 05:13N 36°24' W 008°36'1214.8
2015-Apr-26 04:26N 36°29' W 008°49'6612.9
2015-Apr-25 23:19N 37°19' W 009°42'1414.0
2015-Apr-25 22:18N 37°33' W 009°46'1114.1
2015-Apr-25 21:33N 37°43' W 009°49'1414.2
2015-Apr-25 20:32N 37°57' W 009°53'1414.1
2015-Apr-25 19:33N 38°11' W 009°57'1414.2
2015-Apr-25 18:33N 38°25' W 010°02'1414.2
2015-Apr-25 17:33N 38°39' W 010°05'1414.2
2015-Apr-25 16:33N 38°53' W 010°06'1413.8
2015-Apr-25 15:33N 39°07' W 010°06'16714.5
2015-Apr-25 04:00N 41°54' W 010°06'57513.2 150 / 171014.5 2.2 2.515.013.212.0
2015-Apr-23 08:32N 49°60' W 002°44'1414.3
2015-Apr-23 07:33N 50°04' W 002°23'1915.2
2015-Apr-23 06:19N 49°60' W 001°54'3418.5
2015-Apr-23 04:28N 49°48' W 001°04'1617.8
2015-Apr-23 03:33N 49°42' W 000°41'1616.2
2015-Apr-23 02:33N 49°34' W 000°19'1414.3
2015-Apr-23 01:33N 49°30' E 000°02'5 4.7
2015-Apr-23 00:31N 49°28' E 000°09'0 0.0
2015-Apr-22 23:31N 49°28' E 000°09'0 0.0
2015-Apr-22 22:31N 49°28' E 000°09'0 0.0
2015-Apr-22 21:31N 49°28' E 000°09'0 0.0
2015-Apr-22 20:31N 49°28' E 000°09'0 0.0
2015-Apr-22 19:31N 49°28' E 000°09'0 0.0
2015-Apr-22 18:31N 49°28' E 000°09'0 0.0
2015-Apr-22 17:31N 49°28' E 000°09'0 0.0
2015-Apr-22 16:31N 49°28' E 000°09'0 0.0
2015-Apr-22 15:31N 49°28' E 000°09'0 0.0
2015-Apr-22 14:31N 49°28' E 000°09'0 0.0
2015-Apr-22 13:31N 49°28' E 000°09'0 0.0
2015-Apr-22 12:31N 49°28' E 000°09'0 0.0
2015-Apr-22 11:33N 49°28' E 000°09'5 5.3
2015-Apr-22 10:34N 49°30' E 000°02'1211.6
2015-Apr-22 09:34N 49°34' W 000°15'1818.0
2015-Apr-22 08:34N 49°50' W 000°27'2422.0
2015-Apr-22 07:28N 50°13' W 000°15'2021.8
2015-Apr-22 06:33N 50°29' E 000°03'2322.8
2015-Apr-22 05:33N 50°38' E 000°36'2421.9
2015-Apr-22 04:28N 50°52' E 001°06'1820.0
2015-Apr-22 03:33N 51°04' E 001°28'1817.6
2015-Apr-22 02:33N 51°17' E 001°47'2020.2
2015-Apr-22 01:32N 51°34' E 002°05'2221.8
2015-Apr-22 00:32N 51°50' E 002°29'2222.0
2015-Apr-21 23:33N 52°03' E 002°57'2221.4
2015-Apr-21 22:33N 52°03' E 003°33'1514.7
2015-Apr-21 21:33N 52°01' E 003°56'1414.3
2015-Apr-21 20:33N 51°54' E 004°16'5 5.1
2015-Apr-21 19:33N 51°53' E 004°24'0 0.0
2015-Apr-21 18:33N 51°53' E 004°24'0 0.0
2015-Apr-21 17:33N 51°53' E 004°24'0 0.0
2015-Apr-21 16:33N 51°53' E 004°24'0 0.0
2015-Apr-21 15:33N 51°53' E 004°24'0 0.0
2015-Apr-21 14:33N 51°53' E 004°24'0 0.0
2015-Apr-21 13:33N 51°53' E 004°24'0 0.0
2015-Apr-21 12:33N 51°53' E 004°24'0 0.0
2015-Apr-21 11:33N 51°53' E 004°24'0 0.0
2015-Apr-21 10:33N 51°53' E 004°24'0 0.0
2015-Apr-21 09:33N 51°53' E 004°24'0 0.0
2015-Apr-21 08:33N 51°53' E 004°24'0 0.0
2015-Apr-21 07:33N 51°53' E 004°24'0 0.0
2015-Apr-21 06:33N 51°53' E 004°24'0 0.0
2015-Apr-21 05:33N 51°53' E 004°24'0 0.0
2015-Apr-21 04:33N 51°53' E 004°24'0 0.0
2015-Apr-21 03:33N 51°53' E 004°24'0 0.1
2015-Apr-21 02:33N 51°53' E 004°24'0 0.1
2015-Apr-21 01:29N 51°53' E 004°24'0 0.0
2015-Apr-21 00:34N 51°53' E 004°24'4 4.0
2015-Apr-20 23:34N 51°54' E 004°18'9 8.9
2015-Apr-20 22:34N 51°59' E 004°06'1212.3
2015-Apr-20 21:33N 52°03' E 003°47'1413.6
2015-Apr-20 20:34N 52°16' E 003°47'2019.8
2015-Apr-20 19:34N 52°36' E 003°53'2019.9
2015-Apr-20 18:34N 52°55' E 003°60'1919.1
2015-Apr-20 17:34N 53°09' E 004°22'1818.4
2015-Apr-20 16:34N 53°25' E 004°36'1818.2
2015-Apr-20 15:34N 53°34' E 005°02'1919.4
2015-Apr-20 14:34N 53°41' E 005°33'1919.3
2015-Apr-20 13:34N 53°46' E 006°04'1919.3
2015-Apr-20 12:33N 53°52' E 006°36'1919.5
2015-Apr-20 11:34N 53°56' E 007°08'2019.5
2015-Apr-20 10:33N 54°01' E 007°40'1817.5
2015-Apr-20 09:33N 54°01' E 008°10'1313.2
2015-Apr-20 08:33N 53°58' E 008°32'1414.1
2015-Apr-20 07:34N 53°50' E 008°52'1615.5
2015-Apr-20 06:33N 53°52' E 009°18'1615.9
2015-Apr-20 05:33N 53°38' E 009°32'1211.5
2015-Apr-20 04:33N 53°33' E 009°50'3 2.7
2015-Apr-20 03:26N 53°32' E 009°55'0 0.0
2015-Apr-20 02:30N 53°32' E 009°55'0 0.0
2015-Apr-20 01:29N 53°32' E 009°55'0 0.0
2015-Apr-20 00:32N 53°32' E 009°55'0 0.0
2015-Apr-19 23:32N 53°32' E 009°55'0 0.0
2015-Apr-19 22:32N 53°32' E 009°55'0 0.0
2015-Apr-19 21:29N 53°32' E 009°55'0 0.0
2015-Apr-19 20:32N 53°32' E 009°55'0 0.0
2015-Apr-19 19:32N 53°32' E 009°55'0 0.0
2015-Apr-19 18:32N 53°32' E 009°55'0 0.0
2015-Apr-19 17:32N 53°32' E 009°55'0 0.0
2015-Apr-19 16:28N 53°32' E 009°55'0 0.0
2015-Apr-19 15:32N 53°32' E 009°55'0 0.0
2015-Apr-19 14:28N 53°32' E 009°55'0 0.0
2015-Apr-19 13:32N 53°32' E 009°55'0 0.0
2015-Apr-19 12:28N 53°32' E 009°55'0 0.0
2015-Apr-19 11:32N 53°32' E 009°55'0 0.0
2015-Apr-19 10:28N 53°32' E 009°55'0 0.0
2015-Apr-19 09:32N 53°32' E 009°55'0 0.0
2015-Apr-19 08:32N 53°32' E 009°55'0 0.0
2015-Apr-19 07:28N 53°32' E 009°55'0 0.0
2015-Apr-19 06:31N 53°32' E 009°55'0 0.0
2015-Apr-19 05:31N 53°32' E 009°55'0 0.0
2015-Apr-19 04:33N 53°32' E 009°55'0 0.0
2015-Apr-19 03:30N 53°32' E 009°55'2 2.0
2015-Apr-19 02:33N 53°33' E 009°51'8 8.5
2015-Apr-19 01:34N 53°35' E 009°38'10 9.9
2015-Apr-19 00:33N 53°43' E 009°28'1312.8
2015-Apr-18 23:33N 53°53' E 009°14'1616.0
2015-Apr-18 22:33N 53°50' E 008°47'1716.8
2015-Apr-18 21:33N 53°59' E 008°23'1211.8
2015-Apr-18 20:33N 53°59' E 008°02'1212.6
2015-Apr-18 19:33N 53°57' E 007°42'1919.3
2015-Apr-18 18:33N 53°51' E 007°10'2819.0
2015-Apr-18 17:06N 53°45' E 006°25'1018.7
2015-Apr-18 16:33N 53°42' E 006°08'1919.1
2015-Apr-18 15:34N 53°36' E 005°38'1919.0
2015-Apr-18 14:33N 53°30' E 005°07'1818.2
2015-Apr-18 13:33N 53°21' E 004°41'2119.0
2015-Apr-18 12:28N 53°03' E 004°24'1719.0
2015-Apr-18 11:33N 52°47' E 004°11'2818.8
2015-Apr-18 10:04N 52°28' E 003°38'1319.0
2015-Apr-18 09:23N 52°19' E 003°23'5318.8
2015-Apr-18 06:33N 51°52' E 002°08'1616.1
2015-Apr-18 05:33N 51°50' E 001°42'8 8.3
2015-Apr-18 04:33N 51°45' E 001°31'1616.4
2015-Apr-18 03:33N 51°34' E 001°12'1716.7
2015-Apr-18 02:33N 51°29' E 000°46'1514.9
2015-Apr-18 01:34N 51°27' E 000°22'1 1.5
2015-Apr-18 00:33N 51°28' E 000°20'  
Track history (hours):
 
Tides and Currents Weather Stations Pressure Air Temp Water Temp Dewpoint Dewpoint Depression Visibility Wind Speed Wind Dir Waves Ship Positions

Manila Express

Last reported at 2015-Apr-27 23:33 UTC. Time now 2015-Apr-28 00:30 UTC.
Position N 39°51' E 002°03'.

Length 260 m; draft 10.1 m.

Type: Ship (hazmat cat A). MMSI: 477830800.

Date/timePositionNaut miles runAvg speedWind from/ knotsBaromVisibWave heightAir tempDewpointWater temp
2015-Apr-27 23:33N 39°51' E 002°03'1413.5
2015-Apr-27 22:33N 39°42' E 001°49'1413.5
2015-Apr-27 21:33N 39°33' E 001°36'1413.5
2015-Apr-27 20:33N 39°24' E 001°23'2014.4
2015-Apr-27 19:11N 39°08' E 001°09'913.8
2015-Apr-27 18:32N 39°00' E 001°03'6513.1
2015-Apr-27 13:33N 38°04' E 000°21'1916.3
2015-Apr-27 12:22N 37°47' E 000°09'1619.6
2015-Apr-27 11:33N 37°34' W 000°02'1515.3
2015-Apr-27 10:33N 37°21' W 000°12'1414.0
2015-Apr-27 09:33N 37°09' W 000°22'1413.9
2015-Apr-27 08:33N 37°02' W 000°37'1414.0
2015-Apr-27 07:33N 36°56' W 000°52'1413.8
2015-Apr-27 06:32N 36°49' W 001°08'1613.5
2015-Apr-27 05:22N 36°41' W 001°25'1313.5
2015-Apr-27 04:23N 36°35' W 001°40'1113.1
2015-Apr-27 03:33N 36°30' W 001°52'1413.2
2015-Apr-27 02:32N 36°23' W 002°06'1313.6
2015-Apr-27 01:33N 36°21' W 002°23'1414.0
2015-Apr-27 00:32N 36°19' W 002°40'1414.2
2015-Apr-26 23:33N 36°17' W 002°57'10814.5
2015-Apr-26 16:08N 36°02' W 005°09'1017.6
2015-Apr-26 15:33N 35°59' W 005°21'15915.4
2015-Apr-26 05:13N 36°24' W 008°36'1214.8
2015-Apr-26 04:26N 36°29' W 008°49'6612.9
2015-Apr-25 23:19N 37°19' W 009°42'1414.0
2015-Apr-25 22:18N 37°33' W 009°46'1114.1
2015-Apr-25 21:33N 37°43' W 009°49'1414.2
2015-Apr-25 20:32N 37°57' W 009°53'1414.1
2015-Apr-25 19:33N 38°11' W 009°57'1414.2
2015-Apr-25 18:33N 38°25' W 010°02'1414.2
2015-Apr-25 17:33N 38°39' W 010°05'1414.2
2015-Apr-25 16:33N 38°53' W 010°06'1413.8
2015-Apr-25 15:33N 39°07' W 010°06'16714.5
2015-Apr-25 04:00N 41°54' W 010°06'57513.2 150 / 171014.5 2.2 2.515.013.212.0
2015-Apr-23 08:32N 49°60' W 002°44'1414.3
2015-Apr-23 07:33N 50°04' W 002°23'1915.2
2015-Apr-23 06:19N 49°60' W 001°54'3418.5
2015-Apr-23 04:28N 49°48' W 001°04'1617.8
2015-Apr-23 03:33N 49°42' W 000°41'1616.2
2015-Apr-23 02:33N 49°34' W 000°19'1414.3
2015-Apr-23 01:33N 49°30' E 000°02'5 4.7
2015-Apr-23 00:31N 49°28' E 000°09'0 0.0
2015-Apr-22 23:31N 49°28' E 000°09'0 0.0
2015-Apr-22 22:31N 49°28' E 000°09'0 0.0
2015-Apr-22 21:31N 49°28' E 000°09'0 0.0
2015-Apr-22 20:31N 49°28' E 000°09'0 0.0
2015-Apr-22 19:31N 49°28' E 000°09'0 0.0
2015-Apr-22 18:31N 49°28' E 000°09'0 0.0
2015-Apr-22 17:31N 49°28' E 000°09'0 0.0
2015-Apr-22 16:31N 49°28' E 000°09'0 0.0
2015-Apr-22 15:31N 49°28' E 000°09'0 0.0
2015-Apr-22 14:31N 49°28' E 000°09'0 0.0
2015-Apr-22 13:31N 49°28' E 000°09'0 0.0
2015-Apr-22 12:31N 49°28' E 000°09'0 0.0
2015-Apr-22 11:33N 49°28' E 000°09'5 5.3
2015-Apr-22 10:34N 49°30' E 000°02'1211.6
2015-Apr-22 09:34N 49°34' W 000°15'1818.0
2015-Apr-22 08:34N 49°50' W 000°27'2422.0
2015-Apr-22 07:28N 50°13' W 000°15'2021.8
2015-Apr-22 06:33N 50°29' E 000°03'2322.8
2015-Apr-22 05:33N 50°38' E 000°36'2421.9
2015-Apr-22 04:28N 50°52' E 001°06'1820.0
2015-Apr-22 03:33N 51°04' E 001°28'1817.6
2015-Apr-22 02:33N 51°17' E 001°47'2020.2
2015-Apr-22 01:32N 51°34' E 002°05'2221.8
2015-Apr-22 00:32N 51°50' E 002°29'2222.0
2015-Apr-21 23:33N 52°03' E 002°57'2221.4
2015-Apr-21 22:33N 52°03' E 003°33'1514.7
2015-Apr-21 21:33N 52°01' E 003°56'1414.3
2015-Apr-21 20:33N 51°54' E 004°16'5 5.1
2015-Apr-21 19:33N 51°53' E 004°24'0 0.0
2015-Apr-21 18:33N 51°53' E 004°24'0 0.0
2015-Apr-21 17:33N 51°53' E 004°24'0 0.0
2015-Apr-21 16:33N 51°53' E 004°24'0 0.0
2015-Apr-21 15:33N 51°53' E 004°24'0 0.0
2015-Apr-21 14:33N 51°53' E 004°24'0 0.0
2015-Apr-21 13:33N 51°53' E 004°24'0 0.0
2015-Apr-21 12:33N 51°53' E 004°24'0 0.0
2015-Apr-21 11:33N 51°53' E 004°24'0 0.0
2015-Apr-21 10:33N 51°53' E 004°24'0 0.0
2015-Apr-21 09:33N 51°53' E 004°24'0 0.0
2015-Apr-21 08:33N 51°53' E 004°24'0 0.0
2015-Apr-21 07:33N 51°53' E 004°24'0 0.0
2015-Apr-21 06:33N 51°53' E 004°24'0 0.0
2015-Apr-21 05:33N 51°53' E 004°24'0 0.0
2015-Apr-21 04:33N 51°53' E 004°24'0 0.0
2015-Apr-21 03:33N 51°53' E 004°24'0 0.1
2015-Apr-21 02:33N 51°53' E 004°24'0 0.1
2015-Apr-21 01:29N 51°53' E 004°24'0 0.0
2015-Apr-21 00:34N 51°53' E 004°24'4 4.0
2015-Apr-20 23:34N 51°54' E 004°18'9 8.9
2015-Apr-20 22:34N 51°59' E 004°06'1212.3
2015-Apr-20 21:33N 52°03' E 003°47'1413.6
2015-Apr-20 20:34N 52°16' E 003°47'2019.8
2015-Apr-20 19:34N 52°36' E 003°53'2019.9
2015-Apr-20 18:34N 52°55' E 003°60'1919.1
2015-Apr-20 17:34N 53°09' E 004°22'1818.4
2015-Apr-20 16:34N 53°25' E 004°36'1818.2
2015-Apr-20 15:34N 53°34' E 005°02'1919.4
2015-Apr-20 14:34N 53°41' E 005°33'1919.3
2015-Apr-20 13:34N 53°46' E 006°04'1919.3
2015-Apr-20 12:33N 53°52' E 006°36'1919.5
2015-Apr-20 11:34N 53°56' E 007°08'2019.5
2015-Apr-20 10:33N 54°01' E 007°40'1817.5
2015-Apr-20 09:33N 54°01' E 008°10'1313.2
2015-Apr-20 08:33N 53°58' E 008°32'1414.1
2015-Apr-20 07:34N 53°50' E 008°52'1615.5
2015-Apr-20 06:33N 53°52' E 009°18'1615.9
2015-Apr-20 05:33N 53°38' E 009°32'1211.5
2015-Apr-20 04:33N 53°33' E 009°50'3 2.7
2015-Apr-20 03:26N 53°32' E 009°55'0 0.0
2015-Apr-20 02:30N 53°32' E 009°55'0 0.0
2015-Apr-20 01:29N 53°32' E 009°55'0 0.0
2015-Apr-20 00:32N 53°32' E 009°55'0 0.0
2015-Apr-19 23:32N 53°32' E 009°55'0 0.0
2015-Apr-19 22:32N 53°32' E 009°55'0 0.0
2015-Apr-19 21:29N 53°32' E 009°55'0 0.0
2015-Apr-19 20:32N 53°32' E 009°55'0 0.0
2015-Apr-19 19:32N 53°32' E 009°55'0 0.0
2015-Apr-19 18:32N 53°32' E 009°55'0 0.0
2015-Apr-19 17:32N 53°32' E 009°55'0 0.0
2015-Apr-19 16:28N 53°32' E 009°55'0 0.0
2015-Apr-19 15:32N 53°32' E 009°55'0 0.0
2015-Apr-19 14:28N 53°32' E 009°55'0 0.0
2015-Apr-19 13:32N 53°32' E 009°55'0 0.0
2015-Apr-19 12:28N 53°32' E 009°55'0 0.0
2015-Apr-19 11:32N 53°32' E 009°55'0 0.0
2015-Apr-19 10:28N 53°32' E 009°55'0 0.0
2015-Apr-19 09:32N 53°32' E 009°55'0 0.0
2015-Apr-19 08:32N 53°32' E 009°55'0 0.0
2015-Apr-19 07:28N 53°32' E 009°55'0 0.0
2015-Apr-19 06:31N 53°32' E 009°55'0 0.0
2015-Apr-19 05:31N 53°32' E 009°55'0 0.0
2015-Apr-19 04:33N 53°32' E 009°55'0 0.0
2015-Apr-19 03:30N 53°32' E 009°55'2 2.0
2015-Apr-19 02:33N 53°33' E 009°51'8 8.5
2015-Apr-19 01:34N 53°35' E 009°38'10 9.9
2015-Apr-19 00:33N 53°43' E 009°28'1312.8
2015-Apr-18 23:33N 53°53' E 009°14'1616.0
2015-Apr-18 22:33N 53°50' E 008°47'1716.8
2015-Apr-18 21:33N 53°59' E 008°23'1211.8
2015-Apr-18 20:33N 53°59' E 008°02'1212.6
2015-Apr-18 19:33N 53°57' E 007°42'1919.3
2015-Apr-18 18:33N 53°51' E 007°10'2819.0
2015-Apr-18 17:06N 53°45' E 006°25'1018.7
2015-Apr-18 16:33N 53°42' E 006°08'1919.1
2015-Apr-18 15:34N 53°36' E 005°38'1919.0
2015-Apr-18 14:33N 53°30' E 005°07'1818.2
2015-Apr-18 13:33N 53°21' E 004°41'2119.0
2015-Apr-18 12:28N 53°03' E 004°24'1719.0
2015-Apr-18 11:33N 52°47' E 004°11'2818.8
2015-Apr-18 10:04N 52°28' E 003°38'1319.0
2015-Apr-18 09:23N 52°19' E 003°23'5318.8
2015-Apr-18 06:33N 51°52' E 002°08'1616.1
2015-Apr-18 05:33N 51°50' E 001°42'8 8.3
2015-Apr-18 04:33N 51°45' E 001°31'1616.4
2015-Apr-18 03:33N 51°34' E 001°12'1716.7
2015-Apr-18 02:33N 51°29' E 000°46'1514.9
2015-Apr-18 01:34N 51°27' E 000°22'1 1.5
2015-Apr-18 00:33N 51°28' E 000°20'  

Dump ship's entire track history